Terminal Aerodrome Forecast
Issued by NWS Charleston, WV

Home | Current Version | Previous Version | Text Only | Print | Product List | Glossary On
Versions: 1 2 3 4 5 6 7 8 9 10 11 12 13 14 15 16 17 18 19 20 21 22 23 24 25 26
000
FTUS41 KRLX 050553
TAFBKW
TAF
KBKW 050553Z 0506/0606 12005KT 3SM BR BKN200
      TEMPO 0506/0510 1SM BR SCT002
     FM051000 12004KT 2SM BR BKN200
     FM051300 13006KT 4SM BR BKN200
     FM051400 13006KT P6SM BKN015
     FM051700 13008KT P6SM BKN040
     FM060500 14005KT 6SM BR SCT025=

USA.gov is the U.S. government's official web portal to all federal, state and local government web resources and services.